Time;durP1;ratioP1;P1;durP2;ratioP2;P2;SDS_P1;SDS_P2;PMS_P1;PMS_P2;Temp;Humidity;BMP_temperature;BMP_pressure;BME280_temperature;BME280_humidity;BME280_pressure;Samples;Min_cycle;Max_cycle;Signal;HPM_P1;HPM_P2
2024/01/30 00:00:52;;;;;;;;;24.67;22.33;;;;;;;;5039168;28;45668;-80
2024/01/30 00:03:18;;;;;;;;;24.67;22.67;;;;;;;;5056203;28;45403;-78
2024/01/30 00:05:43;;;;;;;;;29.00;25.33;;;;;;;;5052416;28;45497;-78
2024/01/30 00:08:08;;;;;;;;;26.33;23.00;;;;;;;;5044017;28;45732;-78
2024/01/30 00:10:33;;;;;;;;;27.67;25.67;;;;;;;;5030815;28;45828;-82
2024/01/30 00:12:58;;;;;;;;;24.67;22.67;;;;;;;;5034698;28;46982;-81
2024/01/30 00:15:24;;;;;;;;;22.33;21.00;;;;;;;;5056740;28;45539;-78
2024/01/30 00:17:51;;;;;;;;;23.00;22.33;;;;;;;;5060406;28;45580;-83
2024/01/30 00:20:17;;;;;;;;;27.67;23.67;;;;;;;;5054505;28;45441;-82
2024/01/30 00:22:42;;;;;;;;;22.33;19.67;;;;;;;;5054740;28;45651;-82
2024/01/30 00:25:07;;;;;;;;;22.33;22.00;;;;;;;;5057723;28;45860;-81
2024/01/30 00:27:32;;;;;;;;;26.67;22.00;;;;;;;;5041870;28;45912;-82
2024/01/30 00:29:58;;;;;;;;;32.00;23.00;;;;;;;;5088578;28;45209;-82
2024/01/30 00:32:23;;;;;;;;;25.00;23.00;;;;;;;;5079705;28;45400;-81
2024/01/30 00:34:48;;;;;;;;;26.00;22.67;;;;;;;;5053247;28;45701;-81
2024/01/30 00:37:14;;;;;;;;;30.00;26.67;;;;;;;;5054855;28;45411;-82
2024/01/30 00:39:39;;;;;;;;;27.33;24.67;;;;;;;;5064131;28;45437;-81
2024/01/30 00:42:04;;;;;;;;;19.67;17.33;;;;;;;;5051365;28;45371;-81
2024/01/30 00:44:31;;;;;;;;;20.00;18.33;;;;;;;;5034667;28;46539;-83
2024/01/30 00:46:56;;;;;;;;;22.67;21.67;;;;;;;;5053639;28;45419;-82
2024/01/30 00:49:21;;;;;;;;;24.67;22.00;;;;;;;;5058153;28;45816;-80
2024/01/30 00:51:46;;;;;;;;;19.00;19.00;;;;;;;;5073516;28;45890;-81
2024/01/30 00:54:12;;;;;;;;;20.00;20.00;;;;;;;;5051881;28;45509;-81
2024/01/30 00:56:37;;;;;;;;;26.33;23.00;;;;;;;;5057928;28;45362;-81
2024/01/30 00:59:02;;;;;;;;;24.33;21.33;;;;;;;;5061680;28;45575;-82
2024/01/30 01:01:27;;;;;;;;;23.33;23.33;;;;;;;;5029672;28;47249;-83
2024/01/30 01:03:53;;;;;;;;;24.33;24.00;;;;;;;;5043514;28;45395;-81
2024/01/30 01:06:18;;;;;;;;;23.00;19.00;;;;;;;;5055034;28;45799;-82
2024/01/30 01:08:43;;;;;;;;;17.00;17.00;;;;;;;;5035775;28;46950;-79
2024/01/30 01:11:09;;;;;;;;;22.67;21.67;;;;;;;;5068089;28;45827;-77
2024/01/30 01:13:34;;;;;;;;;22.00;20.67;;;;;;;;5067975;28;45487;-77
2024/01/30 01:16:00;;;;;;;;;19.67;16.67;;;;;;;;5054403;28;45853;-79
2024/01/30 01:18:25;;;;;;;;;27.33;23.00;;;;;;;;5050052;28;45974;-80
2024/01/30 01:20:50;;;;;;;;;22.67;19.33;;;;;;;;5064075;28;45470;-79
2024/01/30 01:23:16;;;;;;;;;23.00;18.67;;;;;;;;5053577;28;45753;-78
2024/01/30 01:25:41;;;;;;;;;22.67;20.00;;;;;;;;5028622;28;45760;-78
2024/01/30 01:28:06;;;;;;;;;20.00;18.67;;;;;;;;5039661;28;45377;-79
2024/01/30 01:30:31;;;;;;;;;27.67;25.67;;;;;;;;5029901;28;46978;-78
2024/01/30 01:33:00;;;;;;;;;28.00;24.00;;;;;;;;5066146;28;45418;-78
2024/01/30 01:35:26;;;;;;;;;21.67;21.67;;;;;;;;5037390;28;45503;-80
2024/01/30 01:37:54;;;;;;;;;22.33;20.67;;;;;;;;5035351;28;45660;-81
2024/01/30 01:40:23;;;;;;;;;23.00;21.00;;;;;;;;5053908;28;47363;-79
2024/01/30 01:42:49;;;;;;;;;14.00;13.00;;;;;;;;5054867;28;45768;-80
2024/01/30 01:45:15;;;;;;;;;18.33;17.33;;;;;;;;5052937;28;45782;-79
2024/01/30 01:47:41;;;;;;;;;16.00;16.00;;;;;;;;5040492;28;45369;-81
2024/01/30 01:50:06;;;;;;;;;19.33;17.00;;;;;;;;5057091;28;45900;-82
2024/01/30 01:52:32;;;;;;;;;15.00;14.33;;;;;;;;5056717;28;45864;-83
2024/01/30 01:54:57;;;;;;;;;18.33;16.00;;;;;;;;5029918;28;45431;-82
2024/01/30 01:57:22;;;;;;;;;12.33;12.00;;;;;;;;5034768;28;46409;-82
2024/01/30 01:59:48;;;;;;;;;13.33;11.00;;;;;;;;5030218;28;48176;-83
2024/01/30 02:02:15;;;;;;;;;11.67;10.67;;;;;;;;5044112;28;45768;-83
2024/01/30 02:04:41;;;;;;;;;13.33;10.00;;;;;;;;5032085;28;45985;-83
2024/01/30 02:07:06;;;;;;;;;12.33;11.00;;;;;;;;5052558;28;45865;-82
2024/01/30 02:09:31;;;;;;;;;11.00;9.67;;;;;;;;5065598;28;47042;-82
2024/01/30 02:11:57;;;;;;;;;11.00;11.00;;;;;;;;5054219;28;45710;-82
2024/01/30 02:14:22;;;;;;;;;11.00;9.67;;;;;;;;5047571;28;45344;-83
2024/01/30 02:16:47;;;;;;;;;11.67;8.00;;;;;;;;5056549;28;45613;-83
2024/01/30 02:19:13;;;;;;;;;10.00;9.00;;;;;;;;5071028;28;45783;-83
2024/01/30 02:21:38;;;;;;;;;10.33;10.33;;;;;;;;5066291;28;45305;-82
2024/01/30 02:24:04;;;;;;;;;12.00;11.67;;;;;;;;5034711;28;45835;-83
2024/01/30 02:26:29;;;;;;;;;13.00;10.67;;;;;;;;5059195;28;45429;-83
2024/01/30 02:28:55;;;;;;;;;10.00;10.00;;;;;;;;5059533;28;46216;-83
2024/01/30 02:31:20;;;;;;;;;9.00;8.00;;;;;;;;5058516;28;45340;-83
2024/01/30 02:33:45;;;;;;;;;8.00;8.00;;;;;;;;5056446;28;46413;-81
2024/01/30 02:36:10;;;;;;;;;10.00;10.00;;;;;;;;5049096;28;45312;-83
2024/01/30 02:38:36;;;;;;;;;14.00;11.67;;;;;;;;5066049;28;46210;-83
2024/01/30 02:41:01;;;;;;;;;9.33;9.33;;;;;;;;5076170;28;45449;-83
2024/01/30 02:43:26;;;;;;;;;12.33;10.00;;;;;;;;5042057;28;45347;-82
2024/01/30 02:45:51;;;;;;;;;9.00;9.00;;;;;;;;5026242;28;45827;-83
2024/01/30 02:48:17;;;;;;;;;12.33;10.33;;;;;;;;5058093;28;46438;-82
2024/01/30 02:50:42;;;;;;;;;9.67;8.67;;;;;;;;5060965;28;45369;-82
2024/01/30 02:53:07;;;;;;;;;10.33;9.00;;;;;;;;5053642;28;45775;-82
2024/01/30 02:55:33;;;;;;;;;10.33;10.33;;;;;;;;5045294;28;45632;-83
2024/01/30 02:57:58;;;;;;;;;10.00;8.00;;;;;;;;5028117;28;46974;-80
2024/01/30 03:00:23;;;;;;;;;11.33;9.67;;;;;;;;5069959;28;45420;-82
2024/01/30 03:02:48;;;;;;;;;10.67;10.00;;;;;;;;5026654;28;45400;-81
2024/01/30 03:05:14;;;;;;;;;8.33;8.00;;;;;;;;5038580;28;46170;-83
2024/01/30 03:07:39;;;;;;;;;9.00;9.00;;;;;;;;5063564;28;45484;-83
2024/01/30 03:10:05;;;;;;;;;9.67;8.67;;;;;;;;5063752;28;45798;-81
2024/01/30 03:12:31;;;;;;;;;8.67;8.67;;;;;;;;5037519;28;45405;-79
2024/01/30 03:14:56;;;;;;;;;11.33;10.00;;;;;;;;5055504;28;45410;-80
2024/01/30 03:17:21;;;;;;;;;11.00;10.00;;;;;;;;5067778;28;45307;-80
2024/01/30 03:19:46;;;;;;;;;9.67;8.00;;;;;;;;5070980;28;45361;-80
2024/01/30 03:22:11;;;;;;;;;10.33;9.67;;;;;;;;5058344;28;45767;-79
2024/01/30 03:24:37;;;;;;;;;11.67;10.67;;;;;;;;5047486;28;45666;-80
2024/01/30 03:27:02;;;;;;;;;7.67;7.33;;;;;;;;5051671;28;45653;-78
2024/01/30 03:29:27;;;;;;;;;11.33;11.33;;;;;;;;5032377;28;45980;-78
2024/01/30 03:31:53;;;;;;;;;14.33;11.67;;;;;;;;5051377;28;45935;-80
2024/01/30 03:34:18;;;;;;;;;10.00;8.33;;;;;;;;5033026;28;46223;-80
2024/01/30 03:36:43;;;;;;;;;8.00;8.00;;;;;;;;5030040;28;46944;-80
2024/01/30 03:39:08;;;;;;;;;9.67;7.67;;;;;;;;5054913;28;45403;-78
2024/01/30 03:41:34;;;;;;;;;10.00;10.00;;;;;;;;5030849;28;46620;-78
2024/01/30 03:43:59;;;;;;;;;9.67;6.33;;;;;;;;5036223;28;47209;-79
2024/01/30 03:46:24;;;;;;;;;10.67;10.33;;;;;;;;5036108;28;47187;-80
2024/01/30 03:48:50;;;;;;;;;12.33;9.67;;;;;;;;5059940;28;45740;-79
2024/01/30 03:51:15;;;;;;;;;13.00;7.33;;;;;;;;5044043;28;45670;-80
2024/01/30 03:53:45;;;;;;;;;9.67;8.67;;;;;;;;5067028;28;45430;-79
2024/01/30 03:56:10;;;;;;;;;9.33;9.00;;;;;;;;5049476;28;47092;-80
2024/01/30 03:58:36;;;;;;;;;15.67;13.00;;;;;;;;5036991;28;45893;-78
2024/01/30 04:01:01;;;;;;;;;12.67;11.00;;;;;;;;5037215;28;45532;-79
2024/01/30 04:03:27;;;;;;;;;13.33;12.33;;;;;;;;5037401;28;46004;-79
2024/01/30 04:05:52;;;;;;;;;10.00;9.67;;;;;;;;5038337;28;46137;-81
2024/01/30 04:08:17;;;;;;;;;15.00;12.00;;;;;;;;5050477;28;45720;-78
2024/01/30 04:10:43;;;;;;;;;13.33;12.00;;;;;;;;5032687;28;45414;-78
2024/01/30 04:13:08;;;;;;;;;9.00;9.00;;;;;;;;5058740;28;45776;-79
2024/01/30 04:15:34;;;;;;;;;13.00;9.67;;;;;;;;5029690;28;45653;-80
2024/01/30 04:17:59;;;;;;;;;11.00;9.33;;;;;;;;5055863;28;45429;-80
2024/01/30 04:20:25;;;;;;;;;13.00;10.67;;;;;;;;5054854;28;44813;-79
2024/01/30 04:22:50;;;;;;;;;12.00;10.33;;;;;;;;5051318;28;46013;-78
2024/01/30 04:25:16;;;;;;;;;12.00;11.67;;;;;;;;5031599;28;47447;-80
2024/01/30 04:27:41;;;;;;;;;14.00;9.67;;;;;;;;5028962;28;45792;-80
2024/01/30 04:30:07;;;;;;;;;13.00;11.00;;;;;;;;5050021;28;45745;-82
2024/01/30 04:32:32;;;;;;;;;12.67;10.00;;;;;;;;5034026;28;47459;-82
2024/01/30 04:34:57;;;;;;;;;12.33;10.33;;;;;;;;5040646;28;47128;-81
2024/01/30 04:37:23;;;;;;;;;13.33;10.00;;;;;;;;5045852;28;45524;-81
2024/01/30 04:39:48;;;;;;;;;10.00;9.00;;;;;;;;5057818;28;45779;-82
2024/01/30 04:42:13;;;;;;;;;8.00;8.00;;;;;;;;5056097;28;45672;-83
2024/01/30 04:44:39;;;;;;;;;11.00;11.00;;;;;;;;5059212;28;47036;-83
2024/01/30 04:47:05;;;;;;;;;9.67;9.33;;;;;;;;5037049;28;45578;-84
2024/01/30 04:49:31;;;;;;;;;10.00;9.00;;;;;;;;5038199;28;45511;-83
2024/01/30 04:51:56;;;;;;;;;9.33;8.33;;;;;;;;5056340;28;45501;-82
2024/01/30 04:54:22;;;;;;;;;12.33;10.33;;;;;;;;5067510;28;45410;-79
2024/01/30 04:56:47;;;;;;;;;13.33;10.33;;;;;;;;5036271;28;45517;-80
2024/01/30 04:59:12;;;;;;;;;14.00;11.67;;;;;;;;5048732;28;45382;-81
2024/01/30 05:01:38;;;;;;;;;10.33;9.33;;;;;;;;5036691;28;45944;-83
2024/01/30 05:04:03;;;;;;;;;9.00;9.00;;;;;;;;5038829;28;47687;-83
2024/01/30 05:06:29;;;;;;;;;12.00;11.00;;;;;;;;5027587;28;45245;-83
2024/01/30 05:08:54;;;;;;;;;10.00;9.67;;;;;;;;5039610;28;45281;-83
2024/01/30 05:11:19;;;;;;;;;14.33;11.00;;;;;;;;5062189;28;45271;-80
2024/01/30 05:13:44;;;;;;;;;9.67;9.67;;;;;;;;5059186;28;45376;-79
2024/01/30 05:16:10;;;;;;;;;14.33;13.00;;;;;;;;5039413;28;45587;-79
2024/01/30 05:18:35;;;;;;;;;10.00;10.00;;;;;;;;5034810;28;45451;-77
2024/01/30 05:21:01;;;;;;;;;11.67;10.33;;;;;;;;5062508;28;45363;-78
2024/01/30 05:23:27;;;;;;;;;12.00;9.67;;;;;;;;5068079;28;45910;-79
2024/01/30 05:25:52;;;;;;;;;13.00;13.00;;;;;;;;5024156;28;45728;-80
2024/01/30 05:28:17;;;;;;;;;13.33;8.33;;;;;;;;5045507;28;45487;-79
2024/01/30 05:30:42;;;;;;;;;9.67;9.67;;;;;;;;5045452;28;46003;-77
2024/01/30 05:33:08;;;;;;;;;12.33;10.67;;;;;;;;5036629;28;47590;-78
2024/01/30 05:35:33;;;;;;;;;13.00;9.67;;;;;;;;5048041;28;45544;-77
2024/01/30 05:37:58;;;;;;;;;10.33;9.67;;;;;;;;5056390;28;45717;-75
2024/01/30 05:40:23;;;;;;;;;10.33;10.33;;;;;;;;5060129;28;45524;-74
2024/01/30 05:42:49;;;;;;;;;22.67;21.33;;;;;;;;5061742;28;45496;-75
2024/01/30 05:45:14;;;;;;;;;14.00;11.00;;;;;;;;5050784;28;45438;-75
2024/01/30 05:47:39;;;;;;;;;12.00;10.00;;;;;;;;5052122;28;45885;-76
2024/01/30 05:50:05;;;;;;;;;15.33;12.33;;;;;;;;5037486;28;46844;-74
2024/01/30 05:52:30;;;;;;;;;17.33;16.00;;;;;;;;5068973;28;45824;-79
2024/01/30 05:54:56;;;;;;;;;26.00;23.33;;;;;;;;5034395;28;45876;-74
2024/01/30 05:57:21;;;;;;;;;18.33;16.00;;;;;;;;5054843;28;45555;-75
2024/01/30 05:59:47;;;;;;;;;12.00;12.00;;;;;;;;5053503;28;45397;-75
2024/01/30 06:02:13;;;;;;;;;12.67;11.00;;;;;;;;5056963;28;45351;-83
2024/01/30 06:04:38;;;;;;;;;22.67;17.00;;;;;;;;5045642;28;45502;-73
2024/01/30 06:07:04;;;;;;;;;17.00;14.33;;;;;;;;5061198;28;45380;-75
2024/01/30 06:09:29;;;;;;;;;16.33;13.33;;;;;;;;5043332;28;46159;-76
2024/01/30 06:11:57;;;;;;;;;16.33;13.33;;;;;;;;5039292;28;48214;-75
2024/01/30 06:14:23;;;;;;;;;21.33;19.00;;;;;;;;5038461;28;45716;-75
2024/01/30 06:16:49;;;;;;;;;19.67;13.67;;;;;;;;5032992;28;45476;-75
2024/01/30 06:19:14;;;;;;;;;18.67;15.00;;;;;;;;5064244;28;45969;-75
2024/01/30 06:21:39;;;;;;;;;16.00;15.00;;;;;;;;5048239;28;47498;-74
2024/01/30 06:24:05;;;;;;;;;23.00;18.33;;;;;;;;5052246;28;45806;-74
2024/01/30 06:26:30;;;;;;;;;16.33;15.33;;;;;;;;5040376;28;45947;-74
2024/01/30 06:29:09;;;;;;;;;17.33;13.33;;;;;;;;5057280;28;45873;-88
2024/01/30 06:31:39;;;;;;;;;13.00;12.00;;;;;;;;5036241;28;45625;-74
2024/01/30 06:34:04;;;;;;;;;14.33;13.00;;;;;;;;5043417;28;45697;-72
2024/01/30 06:36:30;;;;;;;;;18.33;14.67;;;;;;;;5051126;28;45338;-73
2024/01/30 06:38:55;;;;;;;;;12.33;11.33;;;;;;;;5045581;28;47209;-73
2024/01/30 06:41:21;;;;;;;;;12.33;10.67;;;;;;;;5050471;28;46413;-74
2024/01/30 06:43:46;;;;;;;;;11.67;9.00;;;;;;;;5032745;28;45835;-73
2024/01/30 06:46:11;;;;;;;;;10.67;9.33;;;;;;;;5050807;28;45612;-73
2024/01/30 06:48:37;;;;;;;;;12.00;11.00;;;;;;;;5043900;28;45825;-71
2024/01/30 06:51:02;;;;;;;;;12.67;11.00;;;;;;;;5051295;28;45785;-73
2024/01/30 06:53:27;;;;;;;;;14.33;14.00;;;;;;;;5045558;28;45662;-73
2024/01/30 06:55:52;;;;;;;;;12.00;12.00;;;;;;;;5013662;28;45286;-74
2024/01/30 06:58:17;;;;;;;;;14.67;12.00;;;;;;;;5036223;28;46904;-77
2024/01/30 07:00:43;;;;;;;;;13.00;10.33;;;;;;;;5059103;28;46291;-75
2024/01/30 07:03:08;;;;;;;;;13.00;11.67;;;;;;;;5052829;28;45947;-73
2024/01/30 07:05:33;;;;;;;;;14.00;11.33;;;;;;;;5041587;28;45453;-74
2024/01/30 07:07:58;;;;;;;;;12.67;11.33;;;;;;;;5034328;28;45763;-75
2024/01/30 07:10:24;;;;;;;;;18.33;14.67;;;;;;;;5058809;28;45395;-72
2024/01/30 07:12:49;;;;;;;;;20.67;15.00;;;;;;;;5049795;28;45496;-73
2024/01/30 07:15:18;;;;;;;;;19.33;15.00;;;;;;;;5050503;28;45768;-73
2024/01/30 07:17:43;;;;;;;;;16.00;14.67;;;;;;;;5019052;28;46768;-75
2024/01/30 07:20:09;;;;;;;;;12.67;12.00;;;;;;;;5051042;28;45853;-74
2024/01/30 07:22:34;;;;;;;;;16.33;14.67;;;;;;;;5028706;28;45667;-76
2024/01/30 07:24:59;;;;;;;;;15.33;13.67;;;;;;;;5041308;28;45454;-75
2024/01/30 07:27:25;;;;;;;;;18.67;12.00;;;;;;;;5045673;28;45562;-75
2024/01/30 07:29:50;;;;;;;;;15.67;14.33;;;;;;;;5041043;28;48257;-75
2024/01/30 07:32:15;;;;;;;;;17.00;14.33;;;;;;;;5053245;28;45521;-80
2024/01/30 07:34:40;;;;;;;;;14.00;11.67;;;;;;;;5041722;28;45435;-78
2024/01/30 07:37:30;;;;;;;;;15.00;12.00;;;;;;;;5048096;28;45466;-86
2024/01/30 07:40:00;;;;;;;;;13.67;12.00;;;;;;;;5039342;28;46100;-88
2024/01/30 07:42:26;;;;;;;;;13.67;12.33;;;;;;;;5068994;28;45498;-81
2024/01/30 07:44:51;;;;;;;;;15.00;13.67;;;;;;;;5065539;28;45392;-80
2024/01/30 07:47:16;;;;;;;;;16.67;14.67;;;;;;;;5053500;28;47347;-79
2024/01/30 07:49:45;;;;;;;;;17.33;15.00;;;;;;;;5059377;28;46514;-78
2024/01/30 07:52:10;;;;;;;;;21.33;19.00;;;;;;;;5040731;28;45767;-80
2024/01/30 07:54:38;;;;;;;;;20.33;16.00;;;;;;;;5053906;28;45409;-79
2024/01/30 07:57:04;;;;;;;;;16.33;15.00;;;;;;;;5056762;28;45571;-79
2024/01/30 07:59:29;;;;;;;;;22.00;16.33;;;;;;;;5037050;28;45765;-79
2024/01/30 08:01:56;;;;;;;;;24.67;20.00;;;;;;;;5027715;28;45779;-78
2024/01/30 08:04:21;;;;;;;;;18.67;18.00;;;;;;;;5033434;28;45843;-80
2024/01/30 08:06:46;;;;;;;;;14.33;10.67;;;;;;;;5031014;28;45995;-78
2024/01/30 08:09:11;;;;;;;;;17.67;14.67;;;;;;;;5031130;28;48119;-78
2024/01/30 08:11:37;;;;;;;;;17.33;16.00;;;;;;;;5037414;28;45478;-78
2024/01/30 08:14:02;;;;;;;;;18.33;15.67;;;;;;;;5032513;28;45615;-79
2024/01/30 08:16:27;;;;;;;;;18.00;17.33;;;;;;;;5024977;28;46924;-80
2024/01/30 08:18:53;;;;;;;;;17.33;16.00;;;;;;;;5019205;28;47499;-79
2024/01/30 08:21:18;;;;;;;;;25.67;18.00;;;;;;;;5033472;28;45774;-80
2024/01/30 08:23:44;;;;;;;;;23.67;19.33;;;;;;;;5047932;28;45339;-79
2024/01/30 08:26:09;;;;;;;;;16.67;16.67;;;;;;;;5060249;28;45674;-77
2024/01/30 08:28:34;;;;;;;;;16.00;13.67;;;;;;;;5059307;28;45659;-81
2024/01/30 08:30:59;;;;;;;;;18.67;16.00;;;;;;;;5055710;28;45701;-80
2024/01/30 08:33:24;;;;;;;;;16.00;16.00;;;;;;;;5046357;28;45746;-79
2024/01/30 08:35:50;;;;;;;;;18.33;16.33;;;;;;;;5048655;28;45441;-79
2024/01/30 08:38:15;;;;;;;;;16.67;14.67;;;;;;;;5067900;28;46240;-80
2024/01/30 08:40:40;;;;;;;;;14.67;12.33;;;;;;;;5054458;28;45390;-80
2024/01/30 08:43:05;;;;;;;;;19.00;16.67;;;;;;;;5054059;28;45422;-81
2024/01/30 08:45:31;;;;;;;;;23.33;16.33;;;;;;;;5052129;28;45474;-79
2024/01/30 08:47:56;;;;;;;;;19.00;16.00;;;;;;;;5035357;28;45383;-80
2024/01/30 08:50:21;;;;;;;;;16.67;16.33;;;;;;;;5058313;28;45408;-80
2024/01/30 08:52:47;;;;;;;;;15.67;11.67;;;;;;;;5051931;28;45355;-80
2024/01/30 08:55:13;;;;;;;;;14.00;14.00;;;;;;;;5053370;28;45394;-80
2024/01/30 08:57:38;;;;;;;;;15.00;12.00;;;;;;;;5062976;28;45612;-79
2024/01/30 09:00:06;;;;;;;;;15.00;11.33;;;;;;;;5054604;28;45688;-80
2024/01/30 09:02:32;;;;;;;;;12.67;12.67;;;;;;;;5062124;28;45793;-79
2024/01/30 09:04:57;;;;;;;;;17.67;14.33;;;;;;;;5046089;28;46038;-80
2024/01/30 09:07:22;;;;;;;;;14.00;13.00;;;;;;;;5039809;28;46868;-80
2024/01/30 09:09:48;;;;;;;;;16.00;14.33;;;;;;;;5025441;28;46604;-73
2024/01/30 09:12:14;;;;;;;;;12.33;12.00;;;;;;;;5054987;28;45619;-74
2024/01/30 09:14:40;;;;;;;;;12.67;11.00;;;;;;;;5061590;28;45807;-73
2024/01/30 09:17:06;;;;;;;;;16.00;13.00;;;;;;;;5055015;28;45539;-73
2024/01/30 09:19:31;;;;;;;;;12.33;9.67;;;;;;;;5060633;28;45602;-75
2024/01/30 09:21:56;;;;;;;;;14.67;13.00;;;;;;;;5045900;28;45303;-74
2024/01/30 09:24:21;;;;;;;;;16.00;12.33;;;;;;;;5056652;28;45739;-73
2024/01/30 09:26:47;;;;;;;;;12.67;11.67;;;;;;;;5051086;28;46073;-76
2024/01/30 09:29:12;;;;;;;;;16.33;12.67;;;;;;;;5053045;28;45392;-74
2024/01/30 09:31:37;;;;;;;;;15.00;11.67;;;;;;;;5040538;28;45367;-76
2024/01/30 09:34:03;;;;;;;;;14.00;10.33;;;;;;;;5055874;28;45511;-74
2024/01/30 09:36:28;;;;;;;;;11.67;9.00;;;;;;;;5034340;28;47176;-73
2024/01/30 09:38:53;;;;;;;;;14.00;11.00;;;;;;;;5038508;28;45730;-73
2024/01/30 09:41:19;;;;;;;;;13.33;9.00;;;;;;;;5055804;28;45672;-74
2024/01/30 09:43:48;;;;;;;;;14.33;10.67;;;;;;;;5053870;28;45911;-79
2024/01/30 09:46:15;;;;;;;;;16.67;12.67;;;;;;;;5041133;28;47487;-76
2024/01/30 09:48:42;;;;;;;;;12.67;10.67;;;;;;;;5034305;28;45691;-82
2024/01/30 09:51:07;;;;;;;;;11.67;10.00;;;;;;;;5029514;28;45430;-81
2024/01/30 09:53:35;;;;;;;;;7.33;7.00;;;;;;;;5031385;28;45891;-82
2024/01/30 09:56:02;;;;;;;;;11.00;10.00;;;;;;;;5069201;28;46673;-80
2024/01/30 09:58:27;;;;;;;;;11.00;11.00;;;;;;;;5064982;28;45840;-80
2024/01/30 10:00:53;;;;;;;;;12.67;11.67;;;;;;;;5042380;28;45545;-80
2024/01/30 10:03:20;;;;;;;;;15.00;12.00;;;;;;;;5052322;28;45782;-80
2024/01/30 10:05:54;;;;;;;;;13.33;10.00;;;;;;;;5044608;28;47208;-79
2024/01/30 10:08:19;;;;;;;;;12.00;12.00;;;;;;;;5041600;28;45451;-81
2024/01/30 10:10:49;;;;;;;;;14.00;13.33;;;;;;;;5063134;28;45426;-72
2024/01/30 10:13:15;;;;;;;;;18.33;14.00;;;;;;;;5053405;28;45700;-74
2024/01/30 10:15:41;;;;;;;;;11.00;11.00;;;;;;;;5036552;28;47365;-74
2024/01/30 10:18:06;;;;;;;;;10.67;7.33;;;;;;;;5050731;28;45534;-75
2024/01/30 10:20:32;;;;;;;;;11.00;8.00;;;;;;;;5041523;28;45675;-75
2024/01/30 10:22:57;;;;;;;;;9.33;9.00;;;;;;;;5051547;28;45564;-77
2024/01/30 10:25:26;;;;;;;;;13.00;10.00;;;;;;;;5028221;28;47314;-74
2024/01/30 10:27:58;;;;;;;;;11.33;9.33;;;;;;;;5050435;28;45733;-74
2024/01/30 10:30:24;;;;;;;;;9.33;7.67;;;;;;;;5072241;28;45462;-74
2024/01/30 10:32:49;;;;;;;;;12.33;10.67;;;;;;;;5056354;28;45746;-74
2024/01/30 10:35:14;;;;;;;;;6.00;5.00;;;;;;;;5046319;28;46113;-74
2024/01/30 10:37:43;;;;;;;;;18.00;14.33;;;;;;;;5034543;28;45693;-74
2024/01/30 10:40:09;;;;;;;;;7.00;6.33;;;;;;;;5066379;28;45890;-74
2024/01/30 10:42:36;;;;;;;;;9.00;6.00;;;;;;;;5054477;28;45479;-75
2024/01/30 10:45:18;;;;;;;;;12.00;9.33;;;;;;;;5051081;28;45916;-74
2024/01/30 10:47:53;;;;;;;;;7.00;6.33;;;;;;;;5051967;28;45807;-74
2024/01/30 10:50:19;;;;;;;;;12.00;7.67;;;;;;;;5037858;28;45422;-74
2024/01/30 10:52:45;;;;;;;;;9.67;5.33;;;;;;;;5026370;28;46029;-74
2024/01/30 10:55:10;;;;;;;;;3.00;3.00;;;;;;;;5050162;28;45434;-73
2024/01/30 10:57:36;;;;;;;;;11.67;8.33;;;;;;;;5050300;28;45784;-72
2024/01/30 11:00:05;;;;;;;;;10.00;8.33;;;;;;;;5042565;28;45883;-75
2024/01/30 11:02:31;;;;;;;;;13.00;9.33;;;;;;;;5032099;28;46099;-74
2024/01/30 11:04:57;;;;;;;;;11.67;10.67;;;;;;;;5043976;28;46727;-79
2024/01/30 11:07:29;;;;;;;;;12.00;10.67;;;;;;;;5050369;28;45870;-79
2024/01/30 11:09:57;;;;;;;;;10.67;9.67;;;;;;;;5051497;28;45470;-77
2024/01/30 11:12:26;;;;;;;;;11.00;11.00;;;;;;;;5033370;28;46454;-79
2024/01/30 11:15:06;;;;;;;;;7.67;7.00;;;;;;;;5036539;28;47115;-77
2024/01/30 11:17:45;;;;;;;;;7.00;5.00;;;;;;;;5044792;28;45958;-79
2024/01/30 11:20:12;;;;;;;;;10.67;6.00;;;;;;;;5044831;28;45754;-79
2024/01/30 11:22:37;;;;;;;;;9.67;5.67;;;;;;;;5028264;28;45872;-79
2024/01/30 11:25:03;;;;;;;;;7.33;4.00;;;;;;;;5039275;28;46191;-81
2024/01/30 11:27:29;;;;;;;;;8.33;7.67;;;;;;;;5026950;28;45741;-79
2024/01/30 11:30:00;;;;;;;;;16.33;12.33;;;;;;;;5033396;28;46063;-79
2024/01/30 11:32:26;;;;;;;;;8.67;7.00;;;;;;;;5043663;28;45523;-81
2024/01/30 11:34:52;;;;;;;;;9.00;5.00;;;;;;;;5051902;28;45801;-79
2024/01/30 11:37:20;;;;;;;;;4.00;4.00;;;;;;;;5032797;28;46073;-79
2024/01/30 11:39:45;;;;;;;;;6.00;4.00;;;;;;;;5028288;28;46054;-80
2024/01/30 11:42:11;;;;;;;;;5.33;5.33;;;;;;;;5042228;28;45771;-82
2024/01/30 11:44:36;;;;;;;;;4.67;4.33;;;;;;;;5027112;28;46884;-79
2024/01/30 11:47:03;;;;;;;;;5.67;4.67;;;;;;;;5025991;28;45804;-79
2024/01/30 11:49:28;;;;;;;;;7.33;4.00;;;;;;;;5042508;28;45957;-80
2024/01/30 11:51:54;;;;;;;;;6.00;5.00;;;;;;;;5057575;28;45525;-80
2024/01/30 11:57:55;;;;;;;;;4.33;3.67;;;;;;;;4972292;28;45842;-87
2024/01/30 12:41:33;;;;;;;;;2.33;2.33;;;;;;;;4777783;29;45451;-83
2024/01/30 12:56:43;;;;;;;;;3.33;1.67;;;;;;;;5016505;22;45478;-75
2024/01/30 12:59:08;;;;;;;;;3.00;2.50;;;;;;;;5074656;28;45647;-73
2024/01/30 13:01:34;;;;;;;;;3.33;1.67;;;;;;;;5074920;28;45633;-71
2024/01/30 13:03:59;;;;;;;;;1.00;1.00;;;;;;;;5056165;28;46025;-73
2024/01/30 13:06:24;;;;;;;;;4.33;2.67;;;;;;;;5065545;28;46455;-74
2024/01/30 13:08:49;;;;;;;;;1.67;0.00;;;;;;;;5074145;27;45405;-71
2024/01/30 13:11:15;;;;;;;;;3.00;1.67;;;;;;;;5061602;28;45445;-72
2024/01/30 13:13:40;;;;;;;;;0.00;0.00;;;;;;;;5070611;28;45717;-71
2024/01/30 13:16:05;;;;;;;;;2.67;1.00;;;;;;;;5055436;28;48472;-70
2024/01/30 13:18:31;;;;;;;;;2.67;0.33;;;;;;;;5055794;28;45331;-71
2024/01/30 13:20:56;;;;;;;;;2.67;1.67;;;;;;;;5055807;28;45527;-69
2024/01/30 13:23:21;;;;;;;;;3.67;3.00;;;;;;;;5055203;28;45607;-73
2024/01/30 13:25:47;;;;;;;;;3.67;2.33;;;;;;;;5071897;28;46304;-73
2024/01/30 13:28:12;;;;;;;;;1.00;1.00;;;;;;;;5072628;28;45341;-70
2024/01/30 13:30:37;;;;;;;;;1.00;1.00;;;;;;;;5054880;28;45370;-69
2024/01/30 13:33:03;;;;;;;;;5.33;2.33;;;;;;;;5072747;28;46528;-71
2024/01/30 13:35:28;;;;;;;;;3.67;2.00;;;;;;;;5073568;28;46729;-69
2024/01/30 13:37:53;;;;;;;;;5.00;5.00;;;;;;;;5073285;28;45343;-70
2024/01/30 13:40:19;;;;;;;;;4.67;3.00;;;;;;;;5054654;28;45846;-70
2024/01/30 13:42:44;;;;;;;;;1.00;1.00;;;;;;;;5054792;28;45489;-71
2024/01/30 13:45:12;;;;;;;;;1.00;1.00;;;;;;;;5043471;28;47137;-70
2024/01/30 13:47:38;;;;;;;;;0.00;0.00;;;;;;;;5072422;28;45674;-70
2024/01/30 13:50:03;;;;;;;;;2.00;0.67;;;;;;;;5072351;28;45349;-69
2024/01/30 13:52:28;;;;;;;;;0.00;0.00;;;;;;;;5072991;28;45845;-74
2024/01/30 13:54:54;;;;;;;;;0.00;0.00;;;;;;;;5072371;28;45747;-75
2024/01/30 13:57:19;;;;;;;;;1.00;0.67;;;;;;;;5072660;28;45462;-74
2024/01/30 13:59:44;;;;;;;;;1.67;1.67;;;;;;;;5066370;28;45611;-72
2024/01/30 14:02:10;;;;;;;;;5.00;3.33;;;;;;;;5062784;28;45467;-72
2024/01/30 14:04:37;;;;;;;;;1.00;1.00;;;;;;;;5071616;27;46181;-71
2024/01/30 14:07:02;;;;;;;;;1.00;1.00;;;;;;;;5072749;28;45660;-70
2024/01/30 14:09:27;;;;;;;;;1.00;0.67;;;;;;;;5078301;27;45688;-72
2024/01/30 14:11:53;;;;;;;;;5.00;4.00;;;;;;;;5052694;28;45666;-71
2024/01/30 14:14:18;;;;;;;;;1.00;1.00;;;;;;;;5061374;28;46233;-71
2024/01/30 14:16:45;;;;;;;;;1.00;1.00;;;;;;;;5072328;28;45314;-72
2024/01/30 14:19:10;;;;;;;;;0.00;0.00;;;;;;;;5071896;28;45652;-71
2024/01/30 14:21:37;;;;;;;;;2.00;1.00;;;;;;;;5072810;28;45894;-70
2024/01/30 14:24:02;;;;;;;;;0.00;0.00;;;;;;;;5054105;28;46922;-70
2024/01/30 14:26:27;;;;;;;;;0.00;0.00;;;;;;;;5062022;28;45663;-72
2024/01/30 14:28:53;;;;;;;;;0.00;0.00;;;;;;;;5072056;28;45413;-72
2024/01/30 14:31:19;;;;;;;;;0.33;0.33;;;;;;;;5071585;28;46008;-72
2024/01/30 14:33:45;;;;;;;;;0.25;0.25;;;;;;;;5071094;28;46335;-71
2024/01/30 14:36:10;;;;;;;;;0.67;0.67;;;;;;;;5071849;28;45732;-71
2024/01/30 14:38:35;;;;;;;;;17.67;7.33;;;;;;;;5069547;28;45694;-71
2024/01/30 14:41:00;;;;;;;;;1.67;0.67;;;;;;;;5066009;28;46595;-72
2024/01/30 14:43:26;;;;;;;;;1.00;1.00;;;;;;;;5070437;28;45343;-71
2024/01/30 14:45:52;;;;;;;;;0.33;0.00;;;;;;;;5053139;28;45500;-70
2024/01/30 14:48:18;;;;;;;;;0.00;0.00;;;;;;;;5070856;28;45736;-69
2024/01/30 14:50:43;;;;;;;;;1.33;0.00;;;;;;;;5070590;28;45589;-70
2024/01/30 14:53:08;;;;;;;;;0.00;0.00;;;;;;;;5069040;28;45670;-70
2024/01/30 14:55:33;;;;;;;;;1.00;1.00;;;;;;;;5052830;28;45756;-70
2024/01/30 14:57:59;;;;;;;;;0.33;0.33;;;;;;;;5071069;28;45618;-71
2024/01/30 15:00:24;;;;;;;;;0.67;0.67;;;;;;;;5061336;28;46588;-70
2024/01/30 15:02:50;;;;;;;;;0.00;0.00;;;;;;;;5070541;28;45980;-71
2024/01/30 15:05:15;;;;;;;;;0.00;0.00;;;;;;;;5071156;28;45463;-70
2024/01/30 15:07:40;;;;;;;;;0.00;0.00;;;;;;;;5061702;28;45449;-73
2024/01/30 15:10:06;;;;;;;;;0.00;0.00;;;;;;;;5056702;27;45678;-72
2024/01/30 15:12:31;;;;;;;;;0.67;0.00;;;;;;;;5048542;28;47324;-71
2024/01/30 15:14:56;;;;;;;;;0.00;0.00;;;;;;;;5070796;28;45546;-71